Time;durP1;ratioP1;P1;durP2;ratioP2;P2;SDS_P1;SDS_P2;PMS_P1;PMS_P2;Temp;Humidity;BMP_temperature;BMP_pressure;BME280_temperature;BME280_humidity;BME280_pressure;Samples;Min_cycle;Max_cycle;Signal;HPM_P1;HPM_P2
2023/06/24 00:00:57;;;;;;;17.45;11.15;;;;;;;22.93;52.38;102335.97;4989925;28;124441;-77
2023/06/24 00:03:24;;;;;;;12.93;10.88;;;;;;;22.94;52.49;102335.00;4974081;28;123689;-77
2023/06/24 00:05:51;;;;;;;14.25;10.90;;;;;;;22.96;52.47;102341.13;5001126;28;113378;-77
2023/06/24 00:08:20;;;;;;;15.10;11.70;;;;;;;22.97;52.50;102342.88;4994561;28;113604;-76
2023/06/24 00:10:48;;;;;;;14.23;11.25;;;;;;;23.00;52.61;102337.25;4991051;28;124185;-76
2023/06/24 00:13:15;;;;;;;17.20;11.32;;;;;;;23.02;52.65;102340.72;4973032;28;122897;-76
2023/06/24 00:15:43;;;;;;;14.55;11.02;;;;;;;23.02;52.88;102342.53;4973147;28;113962;-76
2023/06/24 00:18:10;;;;;;;15.23;10.70;;;;;;;23.03;52.58;102342.44;5003492;28;113980;-77
2023/06/24 00:20:38;;;;;;;17.80;10.38;;;;;;;23.04;52.33;102338.78;5001360;28;124110;-76
2023/06/24 00:23:05;;;;;;;13.90;10.43;;;;;;;23.04;52.26;102341.50;4992612;28;123842;-76
2023/06/24 00:25:32;;;;;;;14.00;10.52;;;;;;;23.03;52.21;102337.06;5004621;28;113832;-76
2023/06/24 00:28:00;;;;;;;13.95;9.88;;;;;;;23.01;51.94;102333.56;4991996;28;114734;-76
2023/06/24 00:30:27;;;;;;;15.38;10.30;;;;;;;23.02;51.84;102334.41;4973010;28;123928;-77
2023/06/24 00:32:55;;;;;;;14.77;10.10;;;;;;;23.01;52.07;102333.56;4987744;28;124051;-77
2023/06/24 00:35:24;;;;;;;12.48;10.32;;;;;;;23.01;52.13;102338.97;4982871;28;114124;-76
2023/06/24 00:37:57;;;;;;;13.00;9.73;;;;;;;23.01;51.99;102338.97;4979057;28;114417;-76
2023/06/24 00:40:25;;;;;;;13.43;10.05;;;;;;;23.00;52.14;102337.25;4976703;28;123489;-76
2023/06/24 00:42:53;;;;;;;13.02;9.85;;;;;;;23.00;52.07;102337.25;4981382;28;123685;-76
2023/06/24 00:45:20;;;;;;;12.23;10.10;;;;;;;22.99;52.20;102338.22;4991402;28;114360;-76
2023/06/24 00:47:48;;;;;;;13.48;10.63;;;;;;;22.98;52.27;102350.03;4991922;28;113907;-77
2023/06/24 00:50:16;;;;;;;16.15;10.80;;;;;;;22.98;52.18;102350.03;4994345;28;124270;-79
2023/06/24 00:52:43;;;;;;;14.20;9.90;;;;;;;22.96;51.91;102351.94;5018253;28;121025;-76
2023/06/24 00:55:14;;;;;;;12.98;10.52;;;;;;;22.94;51.93;102356.59;4991829;28;114711;-76
2023/06/24 00:57:43;;;;;;;12.73;10.18;;;;;;;22.93;52.01;102352.19;4974268;28;113354;-77
2023/06/24 01:00:17;;;;;;;12.60;10.32;;;;;;;22.90;51.96;102347.88;4974687;28;122936;-76
2023/06/24 01:02:49;;;;;;;13.13;10.18;;;;;;;22.86;52.00;102345.50;4958624;28;123649;-76
2023/06/24 01:05:17;;;;;;;11.95;9.93;;;;;;;22.82;52.09;102349.41;4993079;28;113222;-76
2023/06/24 01:07:54;;;;;;;12.82;10.15;;;;;;;22.78;52.11;102343.38;4997803;28;114059;-76
2023/06/24 01:10:23;;;;;;;12.35;9.60;;;;;;;22.74;52.17;102348.13;4988783;28;124157;-76
2023/06/24 01:12:50;;;;;;;13.13;10.43;;;;;;;22.70;51.96;102341.25;4983158;28;123023;-77
2023/06/24 01:15:19;;;;;;;13.98;10.38;;;;;;;22.65;52.13;102335.31;4993199;28;114361;-76
2023/06/24 01:17:59;;;;;;;13.18;10.57;;;;;;;22.59;52.25;102327.66;4991314;28;113882;-76
2023/06/24 01:20:52;;;;;;;13.05;10.18;;;;;;;22.52;52.29;102331.75;4971659;28;123320;-76
2023/06/24 01:23:33;;;;;;;12.98;10.25;;;;;;;22.44;52.58;102334.16;4971519;28;123758;-79
2023/06/24 01:26:22;;;;;;;15.73;10.88;;;;;;;22.35;52.65;102341.94;4972646;28;114802;-76
2023/06/24 01:29:22;;;;;;;14.40;9.95;;;;;;;22.27;52.84;102344.31;4971418;28;114054;-76
2023/06/24 01:32:13;;;;;;;14.75;10.45;;;;;;;22.20;52.67;102337.59;4955572;28;123285;-77
2023/06/24 01:34:57;;;;;;;14.65;10.88;;;;;;;22.15;52.93;102339.75;4976771;28;124031;-76
2023/06/24 01:37:40;;;;;;;15.05;11.00;;;;;;;22.09;53.01;102335.63;4972176;28;113605;-78
2023/06/24 01:40:10;;;;;;;16.42;11.68;;;;;;;22.06;53.18;102335.03;5003311;28;113853;-76
2023/06/24 01:42:46;;;;;;;15.90;11.82;;;;;;;22.01;53.47;102332.63;4992600;28;125524;-77
2023/06/24 01:45:19;;;;;;;15.27;11.93;;;;;;;21.99;53.35;102336.41;4960193;28;123387;-76
2023/06/24 01:47:48;;;;;;;15.48;12.35;;;;;;;21.97;53.32;102336.50;4990417;28;114441;-76
2023/06/24 01:50:22;;;;;;;16.25;11.90;;;;;;;21.96;53.32;102341.06;4990516;28;113757;-76
2023/06/24 01:52:52;;;;;;;16.07;11.87;;;;;;;21.96;53.16;102341.06;4970934;28;123650;-77
2023/06/24 01:55:21;;;;;;;16.77;12.32;;;;;;;21.96;53.31;102346.44;4971707;28;125025;-76
2023/06/24 01:57:50;;;;;;;18.33;12.77;;;;;;;21.94;53.40;102348.41;4991667;28;114643;-77
2023/06/24 02:00:17;;;;;;;17.88;12.23;;;;;;;21.95;53.30;102336.63;4981874;28;112584;-78
2023/06/24 02:02:52;;;;;;;15.18;11.90;;;;;;;21.94;53.38;102337.59;4984707;28;124718;-77
2023/06/24 02:05:20;;;;;;;21.33;13.73;;;;;;;21.93;53.29;102333.16;4971344;28;123359;-77
2023/06/24 02:07:51;;;;;;;17.73;13.05;;;;;;;21.91;53.29;102332.41;4989900;28;114507;-77
2023/06/24 02:10:20;;;;;;;22.50;13.57;;;;;;;21.89;53.57;102345.16;4971877;28;113424;-76
2023/06/24 02:12:50;;;;;;;15.85;12.15;;;;;;;21.86;53.41;102334.56;4989515;28;123918;-76
2023/06/24 02:15:20;;;;;;;17.50;12.60;;;;;;;21.84;53.39;102331.09;4971005;28;122836;-76
2023/06/24 02:17:51;;;;;;;18.13;13.05;;;;;;;21.80;53.63;102326.91;4990181;28;115693;-76
2023/06/24 02:20:21;;;;;;;19.45;13.25;;;;;;;21.77;53.78;102337.88;4972182;28;114314;-76
2023/06/24 02:22:50;;;;;;;17.15;13.63;;;;;;;21.74;53.83;102336.28;4979568;28;124607;-76
2023/06/24 02:25:18;;;;;;;16.40;12.65;;;;;;;21.72;53.71;102337.34;4982499;28;122639;-76
2023/06/24 02:27:45;;;;;;;17.77;12.55;;;;;;;21.70;53.74;102333.88;4990106;28;115132;-77
2023/06/24 02:30:14;;;;;;;15.82;12.32;;;;;;;21.66;53.83;102332.34;4971225;28;113721;-77
2023/06/24 02:32:41;;;;;;;16.23;12.25;;;;;;;21.63;53.72;102327.19;4987129;28;123219;-77
2023/06/24 02:35:09;;;;;;;16.70;12.45;;;;;;;21.60;53.79;102322.00;4971174;28;123155;-76
2023/06/24 02:37:36;;;;;;;18.65;12.75;;;;;;;21.57;53.83;102318.56;4987800;28;113449;-77
2023/06/24 02:40:05;;;;;;;20.30;13.07;;;;;;;21.54;53.79;102318.75;4971145;28;114447;-77
2023/06/24 02:42:32;;;;;;;20.85;13.52;;;;;;;21.52;53.96;102315.28;4970573;28;123165;-77
2023/06/24 02:45:00;;;;;;;16.88;13.02;;;;;;;21.49;53.81;102311.94;4977019;28;123839;-76
2023/06/24 02:47:28;;;;;;;19.70;12.50;;;;;;;21.45;53.99;102313.97;4991129;28;115846;-76
2023/06/24 02:49:57;;;;;;;19.88;13.05;;;;;;;21.41;53.97;102312.44;4972248;28;113672;-77
2023/06/24 02:52:28;;;;;;;20.02;14.23;;;;;;;21.38;54.21;102312.66;4988799;28;125917;-76
2023/06/24 02:54:58;;;;;;;15.55;12.88;;;;;;;21.35;54.24;102310.16;4963438;28;123523;-78
2023/06/24 02:57:45;;;;;;;17.15;12.80;;;;;;;21.30;54.54;102315.84;4978762;28;111739;-77
2023/06/24 03:00:33;;;;;;;17.92;13.70;;;;;;;21.27;54.29;102315.22;4992841;28;114651;-77
2023/06/24 03:03:22;;;;;;;16.80;12.80;;;;;;;21.25;54.25;102320.69;4969652;28;123913;-77
2023/06/24 03:05:54;;;;;;;14.50;12.35;;;;;;;21.22;54.38;102333.50;4968168;28;122233;-76
2023/06/24 03:08:24;;;;;;;16.95;13.02;;;;;;;21.19;54.45;102335.44;4967892;28;114656;-77
2023/06/24 03:10:56;;;;;;;16.00;12.07;;;;;;;21.15;54.42;102328.53;4964094;28;97156;-77
2023/06/24 03:13:25;;;;;;;14.50;11.85;;;;;;;21.13;54.57;102325.03;4965932;28;123792;-79
2023/06/24 03:16:05;;;;;;;15.77;12.07;;;;;;;21.10;54.48;102327.97;4969689;28;122976;-79
2023/06/24 03:18:43;;;;;;;15.35;11.50;;;;;;;21.08;54.26;102332.59;4970256;28;114103;-76
2023/06/24 03:21:11;;;;;;;14.93;11.45;;;;;;;21.04;54.42;102336.47;4973371;28;113274;-77
2023/06/24 03:23:40;;;;;;;16.77;12.82;;;;;;;21.01;54.65;102328.56;4968928;28;123671;-76
2023/06/24 03:26:09;;;;;;;18.23;13.23;;;;;;;20.96;54.67;102328.00;4970528;28;123455;-76
2023/06/24 03:28:38;;;;;;;18.25;13.63;;;;;;;20.92;54.91;102321.09;4970375;28;114425;-76
2023/06/24 03:31:15;;;;;;;17.77;13.32;;;;;;;20.88;55.14;102324.94;4970543;28;113957;-76
2023/06/24 03:33:44;;;;;;;17.15;13.43;;;;;;;20.86;55.13;102326.88;4987611;28;124078;-76
2023/06/24 03:36:13;;;;;;;18.33;13.75;;;;;;;20.83;55.30;102327.06;4972315;28;122645;-77
2023/06/24 03:38:41;;;;;;;19.30;14.10;;;;;;;20.82;55.63;102338.81;4973888;28;113467;-77
2023/06/24 03:41:08;;;;;;;18.65;14.48;;;;;;;20.80;55.67;102334.38;4973529;28;113892;-76
2023/06/24 03:43:35;;;;;;;19.00;13.95;;;;;;;20.79;55.91;102347.94;4973157;28;124618;-76
2023/06/24 03:46:02;;;;;;;20.98;15.50;;;;;;;20.77;55.97;102339.97;4991266;28;124881;-76
2023/06/24 03:48:30;;;;;;;20.08;15.05;;;;;;;20.76;56.01;102349.03;4973825;28;113856;-76
2023/06/24 03:50:57;;;;;;;21.10;14.60;;;;;;;20.76;56.17;102346.31;4973905;28;113433;-77
2023/06/24 03:53:26;;;;;;;22.20;14.65;;;;;;;20.76;56.15;102348.16;4969491;28;125337;-77
2023/06/24 03:55:53;;;;;;;18.73;15.00;;;;;;;20.76;56.10;102354.41;4973432;28;123108;-76
2023/06/24 03:58:20;;;;;;;20.77;15.25;;;;;;;20.76;56.06;102353.56;4970078;28;115550;-75
2023/06/24 04:00:49;;;;;;;20.13;15.13;;;;;;;20.76;56.25;102353.56;4973297;28;114087;-76
2023/06/24 04:03:19;;;;;;;20.00;15.25;;;;;;;20.76;56.12;102354.41;4973620;28;123194;-75
2023/06/24 04:05:46;;;;;;;21.77;14.45;;;;;;;20.77;56.16;102350.72;4990964;28;123795;-75
2023/06/24 04:08:18;;;;;;;21.88;14.70;;;;;;;20.79;56.29;102356.91;4973975;28;113617;-75
2023/06/24 04:10:46;;;;;;;20.08;13.95;;;;;;;20.79;56.34;102348.84;5003457;28;113857;-76
2023/06/24 04:13:13;;;;;;;19.48;14.75;;;;;;;20.81;56.23;102356.78;4978707;28;122634;-75
2023/06/24 04:15:40;;;;;;;24.27;15.90;;;;;;;20.80;56.45;102350.53;4961453;28;123016;-75
2023/06/24 04:18:08;;;;;;;21.20;16.95;;;;;;;20.80;56.48;102355.94;4992140;28;114365;-75
2023/06/24 04:20:35;;;;;;;25.27;17.90;;;;;;;20.82;56.46;102360.38;4991023;28;114674;-75
2023/06/24 04:23:09;;;;;;;25.95;18.33;;;;;;;20.80;56.48;102355.94;4982012;28;125006;-76
2023/06/24 04:25:37;;;;;;;24.98;18.02;;;;;;;20.82;56.42;102357.69;4975865;28;123843;-76
2023/06/24 04:28:04;;;;;;;27.20;18.30;;;;;;;20.82;56.54;102363.06;4956813;28;113763;-77
2023/06/24 04:30:32;;;;;;;27.13;17.83;;;;;;;20.83;56.62;102354.00;4972317;28;113439;-75
2023/06/24 04:33:02;;;;;;;24.92;17.52;;;;;;;20.84;56.44;102359.28;4954672;28;124393;-76
2023/06/24 04:35:30;;;;;;;21.23;16.85;;;;;;;20.86;56.57;102359.19;4987012;28;123806;-75
2023/06/24 04:37:58;;;;;;;25.55;17.50;;;;;;;20.88;56.41;102362.66;4976310;28;113499;-75
2023/06/24 04:40:25;;;;;;;22.17;16.67;;;;;;;20.88;56.43;102368.03;4988471;28;113543;-78
2023/06/24 04:42:52;;;;;;;25.33;17.77;;;;;;;20.89;56.44;102367.06;4991633;28;123288;-74
2023/06/24 04:45:20;;;;;;;24.83;16.60;;;;;;;20.92;56.50;102374.97;4977098;28;122772;-73
2023/06/24 04:47:48;;;;;;;24.30;17.52;;;;;;;20.96;56.75;102360.31;4976527;28;115186;-74
2023/06/24 04:50:16;;;;;;;23.30;16.67;;;;;;;21.03;56.85;102361.66;4995392;28;114942;-74
2023/06/24 04:52:44;;;;;;;23.02;17.67;;;;;;;21.11;56.99;102359.31;4976042;28;122383;-74
2023/06/24 04:55:11;;;;;;;22.50;17.80;;;;;;;21.20;56.97;102347.94;4977043;28;123071;-74
2023/06/24 04:57:39;;;;;;;25.27;19.10;;;;;;;21.32;56.90;102346.28;4995607;28;113857;-74
2023/06/24 05:00:07;;;;;;;24.88;18.10;;;;;;;21.43;56.51;102348.22;4980142;28;113944;-74
2023/06/24 05:02:34;;;;;;;23.65;17.70;;;;;;;21.52;56.39;102342.25;4995659;28;124149;-74
2023/06/24 05:05:01;;;;;;;24.55;17.92;;;;;;;21.61;55.95;102346.16;4978518;28;124403;-74
2023/06/24 05:07:28;;;;;;;23.70;18.48;;;;;;;21.67;55.74;102348.44;4994406;28;114073;-74
2023/06/24 05:09:56;;;;;;;21.75;17.48;;;;;;;21.74;55.60;102351.59;4995124;28;114403;-74
2023/06/24 05:12:23;;;;;;;21.00;16.98;;;;;;;21.78;55.25;102353.09;4979411;28;125004;-74
2023/06/24 05:14:52;;;;;;;21.52;17.25;;;;;;;21.84;55.32;102349.13;4998865;28;123700;-74
2023/06/24 05:17:20;;;;;;;23.13;17.10;;;;;;;21.87;54.89;102347.09;4999648;28;114553;-74
2023/06/24 05:19:47;;;;;;;21.50;15.70;;;;;;;21.92;54.87;102354.84;4984286;28;112982;-74
2023/06/24 05:22:15;;;;;;;19.50;15.35;;;;;;;21.96;54.53;102357.25;4980518;28;123150;-74
2023/06/24 05:24:42;;;;;;;20.77;15.50;;;;;;;22.02;54.51;102360.47;4981267;28;122892;-74
2023/06/24 05:27:09;;;;;;;17.08;14.52;;;;;;;22.08;54.46;102354.66;5010650;28;113696;-74
2023/06/24 05:29:36;;;;;;;18.92;15.20;;;;;;;22.11;54.17;102358.00;4998154;28;113085;-74
2023/06/24 05:32:04;;;;;;;18.88;14.30;;;;;;;22.16;54.21;102352.28;4978131;28;124541;-74
2023/06/24 05:34:32;;;;;;;18.75;14.57;;;;;;;22.19;54.17;102352.06;4995122;28;124151;-74
2023/06/24 05:36:59;;;;;;;16.10;13.50;;;;;;;22.23;54.00;102348.19;4994425;28;115014;-74
2023/06/24 05:39:26;;;;;;;17.73;13.35;;;;;;;22.28;53.80;102356.84;4993641;28;113864;-74
2023/06/24 05:41:54;;;;;;;16.50;12.25;;;;;;;22.31;53.57;102362.03;4975171;28;123594;-74
2023/06/24 05:44:22;;;;;;;16.08;12.23;;;;;;;22.37;53.70;102365.25;4974832;28;123052;-74
2023/06/24 05:46:50;;;;;;;14.68;11.40;;;;;;;22.43;53.40;102370.22;4976026;28;113664;-74
2023/06/24 05:49:17;;;;;;;15.65;11.73;;;;;;;22.47;53.45;102371.72;4976726;28;114414;-74
2023/06/24 05:51:44;;;;;;;13.40;11.00;;;;;;;22.54;53.19;102373.03;4966870;28;123434;-74
2023/06/24 05:54:12;;;;;;;14.57;10.90;;;;;;;22.63;53.08;102364.25;5004511;28;123902;-74
2023/06/24 05:56:39;;;;;;;14.00;10.93;;;;;;;22.70;53.04;102362.84;4994332;28;114634;-76
2023/06/24 05:59:06;;;;;;;15.15;10.77;;;;;;;22.78;52.96;102369.53;4974562;28;114944;-74
2023/06/24 06:01:34;;;;;;;14.52;10.63;;;;;;;22.83;52.59;102367.34;4974514;28;124420;-74
2023/06/24 06:04:01;;;;;;;15.45;11.60;;;;;;;22.88;52.39;102362.47;4958125;28;123120;-74
2023/06/24 06:06:28;;;;;;;17.05;11.23;;;;;;;22.96;52.66;102361.91;4974824;28;113555;-74
2023/06/24 06:08:57;;;;;;;15.98;11.82;;;;;;;23.03;52.46;102368.59;4974524;28;113343;-74
2023/06/24 06:11:24;;;;;;;17.05;11.63;;;;;;;23.12;52.21;102374.22;4992269;28;123734;-74
2023/06/24 06:13:52;;;;;;;20.33;12.18;;;;;;;23.20;52.38;102375.47;4974233;28;122386;-73
2023/06/24 06:16:19;;;;;;;17.35;11.70;;;;;;;23.31;52.01;102372.84;4993109;28;115035;-74
2023/06/24 06:18:46;;;;;;;20.25;11.65;;;;;;;23.42;52.03;102377.44;4993523;28;114142;-74
2023/06/24 06:21:13;;;;;;;19.58;12.02;;;;;;;23.50;51.78;102378.56;4991400;28;123088;-74
2023/06/24 06:23:41;;;;;;;17.38;11.52;;;;;;;23.60;51.51;102369.75;4974806;28;123465;-74
2023/06/24 06:26:08;;;;;;;15.55;11.05;;;;;;;23.72;51.44;102374.25;4975722;28;115443;-74
2023/06/24 06:28:36;;;;;;;17.05;11.75;;;;;;;23.82;51.19;102372.59;4975328;28;113995;-74
2023/06/24 06:31:03;;;;;;;14.82;11.50;;;;;;;23.96;51.19;102378.75;4992475;28;124344;-73
2023/06/24 06:33:30;;;;;;;16.58;11.68;;;;;;;24.10;50.66;102386.69;4977472;28;124019;-74
2023/06/24 06:35:57;;;;;;;13.82;11.38;;;;;;;24.23;50.35;102384.75;5002719;28;113965;-73
2023/06/24 06:38:24;;;;;;;16.63;10.70;;;;;;;24.37;49.93;102374.66;4974986;28;113211;-74
2023/06/24 06:40:52;;;;;;;15.18;11.10;;;;;;;24.48;49.67;102374.66;4987189;28;123664;-74
2023/06/24 06:43:19;;;;;;;16.40;11.85;;;;;;;24.60;49.46;102379.13;5004006;28;124798;-74
2023/06/24 06:45:46;;;;;;;13.65;10.07;;;;;;;24.73;48.86;102389.81;4972447;28;113766;-74
2023/06/24 06:48:13;;;;;;;14.27;10.98;;;;;;;24.86;48.87;102384.28;4997144;28;113409;-74
2023/06/24 06:50:40;;;;;;;16.50;11.07;;;;;;;24.99;48.74;102385.00;4983609;28;124399;-74
2023/06/24 06:53:07;;;;;;;14.52;9.75;;;;;;;25.13;48.33;102386.59;4995903;28;121857;-73
2023/06/24 06:55:36;;;;;;;13.75;10.27;;;;;;;25.27;47.83;102385.47;4995111;28;115148;-75
2023/06/24 06:58:04;;;;;;;15.63;10.48;;;;;;;25.38;47.97;102390.84;4991259;28;112371;-73
2023/06/24 07:00:31;;;;;;;12.90;9.48;;;;;;;25.52;47.34;102396.97;5014312;28;124838;-72
2023/06/24 07:02:59;;;;;;;15.32;10.40;;;;;;;25.62;46.99;102393.34;4996085;28;122773;-73
2023/06/24 07:05:26;;;;;;;14.88;10.52;;;;;;;25.73;46.87;102395.16;5004497;28;115891;-74
2023/06/24 07:07:53;;;;;;;14.52;10.27;;;;;;;25.84;46.36;102397.81;5015187;28;114649;-73
2023/06/24 07:10:20;;;;;;;14.73;10.32;;;;;;;25.93;46.12;102395.34;5015762;28;124663;-73
2023/06/24 07:12:48;;;;;;;16.55;10.43;;;;;;;25.99;46.05;102405.66;4999584;28;123101;-73
2023/06/24 07:15:19;;;;;;;13.88;10.93;;;;;;;26.09;46.20;102406.59;5016653;28;115909;-73
2023/06/24 07:17:46;;;;;;;15.50;11.00;;;;;;;26.21;45.96;102410.94;5021479;28;116388;-74
2023/06/24 07:20:13;;;;;;;14.88;10.85;;;;;;;26.35;46.01;102406.16;4989257;28;123359;-74
2023/06/24 07:22:40;;;;;;;13.13;10.13;;;;;;;26.46;45.50;102397.94;4988707;28;124683;-74
2023/06/24 07:25:08;;;;;;;14.10;10.32;;;;;;;26.60;45.92;102400.31;5007829;28;114148;-74
2023/06/24 07:27:35;;;;;;;14.13;10.15;;;;;;;26.76;45.02;102399.81;5012259;28;114221;-74
2023/06/24 07:30:02;;;;;;;13.55;9.98;;;;;;;26.90;44.76;102406.75;4998137;28;124619;-74
2023/06/24 07:32:29;;;;;;;13.85;10.65;;;;;;;26.98;44.40;102398.72;4980552;28;121861;-74
2023/06/24 07:34:56;;;;;;;14.30;9.68;;;;;;;27.09;44.40;102405.06;4997041;28;114077;-74
2023/06/24 07:37:24;;;;;;;10.93;8.43;;;;;;;27.20;44.38;102407.69;4981464;28;112741;-74
2023/06/24 07:39:51;;;;;;;13.70;10.13;;;;;;;27.30;44.78;102408.56;4998188;28;123353;-74
2023/06/24 07:42:19;;;;;;;12.52;10.02;;;;;;;27.43;44.55;102405.59;4997450;28;124080;-74
2023/06/24 07:44:47;;;;;;;14.25;10.23;;;;;;;27.56;44.30;102408.03;4998396;28;114198;-74
2023/06/24 07:47:18;;;;;;;13.65;9.10;;;;;;;27.67;43.65;102409.72;4998418;28;113425;-74
2023/06/24 07:49:45;;;;;;;12.00;7.93;;;;;;;27.75;43.76;102408.00;4998111;28;124684;-74
2023/06/24 07:52:12;;;;;;;10.48;6.88;;;;;;;27.84;42.83;102410.88;4995820;28;123572;-76
2023/06/24 07:54:41;;;;;;;6.32;4.80;;;;;;;27.88;41.91;102407.72;4980854;28;113947;-74
2023/06/24 07:57:08;;;;;;;8.18;4.55;;;;;;;27.92;41.73;102405.59;5017136;28;115704;-73
2023/06/24 07:59:35;;;;;;;7.28;4.97;;;;;;;27.92;41.59;102403.72;5003821;28;125147;-75
2023/06/24 08:02:02;;;;;;;6.20;4.85;;;;;;;27.97;41.10;102395.13;4998193;28;124037;-74
2023/06/24 08:04:30;;;;;;;6.53;4.75;;;;;;;28.02;40.94;102403.72;4996002;28;115389;-75
2023/06/24 08:06:57;;;;;;;5.40;4.03;;;;;;;28.06;40.66;102405.13;5000560;28;115543;-74
2023/06/24 08:09:24;;;;;;;8.50;4.85;;;;;;;28.15;40.84;102415.16;4976259;28;124211;-74
2023/06/24 08:11:51;;;;;;;6.70;4.80;;;;;;;28.24;40.03;102407.13;4976024;28;123293;-74
2023/06/24 08:14:18;;;;;;;4.93;4.03;;;;;;;28.32;40.31;102404.50;4977021;28;113609;-74
2023/06/24 08:16:45;;;;;;;6.45;4.40;;;;;;;28.37;39.74;102395.88;5000147;28;114608;-74
2023/06/24 08:19:13;;;;;;;6.43;5.13;;;;;;;28.36;39.43;102395.03;4980604;28;122655;-74
2023/06/24 08:21:41;;;;;;;7.15;5.00;;;;;;;28.37;39.74;102396.75;4997469;28;124313;-74
2023/06/24 08:24:08;;;;;;;7.65;5.80;;;;;;;28.41;39.03;102398.19;4992452;28;114932;-74
2023/06/24 08:26:35;;;;;;;7.60;5.20;;;;;;;28.40;39.22;102396.44;4977324;28;112986;-75
2023/06/24 08:29:03;;;;;;;9.38;6.22;;;;;;;28.44;39.49;102397.00;4999247;28;123780;-74
2023/06/24 08:31:31;;;;;;;7.50;5.45;;;;;;;28.51;39.21;102389.94;4975137;28;122951;-74
2023/06/24 08:34:06;;;;;;;8.82;4.95;;;;;;;28.56;39.84;102384.94;4976471;28;114371;-74
2023/06/24 08:36:33;;;;;;;11.02;6.15;;;;;;;28.66;39.41;102390.34;4983316;28;113435;-74
2023/06/24 08:39:01;;;;;;;6.95;5.70;;;;;;;28.75;38.97;102394.91;5001074;28;123934;-75
2023/06/24 08:41:28;;;;;;;7.55;5.35;;;;;;;28.82;39.16;102395.16;4992938;28;124030;-74
2023/06/24 08:43:55;;;;;;;9.75;5.70;;;;;;;28.88;38.86;102392.69;4988466;28;113144;-75
2023/06/24 08:46:24;;;;;;;8.85;5.43;;;;;;;28.96;38.85;102385.63;4993830;28;113809;-74
2023/06/24 08:49:02;;;;;;;8.30;4.88;;;;;;;29.01;38.96;102378.69;4993607;28;123331;-74
2023/06/24 08:51:35;;;;;;;7.38;5.00;;;;;;;29.11;38.88;102373.16;4987101;28;123113;-75
2023/06/24 08:54:03;;;;;;;6.38;4.75;;;;;;;29.17;38.98;102378.03;4963339;28;114355;-75
2023/06/24 08:56:30;;;;;;;7.65;5.10;;;;;;;29.22;38.74;102386.63;4981374;28;113481;-75
2023/06/24 08:58:57;;;;;;;5.85;4.43;;;;;;;29.27;38.39;102373.38;5008063;28;123709;-74
2023/06/24 09:01:26;;;;;;;6.22;4.20;;;;;;;29.30;38.32;102383.09;5012299;28;124572;-74
2023/06/24 09:03:53;;;;;;;4.82;3.63;;;;;;;29.36;38.09;102381.63;4979138;28;113666;-74
2023/06/24 09:06:20;;;;;;;5.47;4.00;;;;;;;29.42;37.53;102375.53;5004015;28;114300;-74
2023/06/24 09:08:57;;;;;;;4.90;3.95;;;;;;;29.50;37.39;102372.91;4995008;28;123064;-75
2023/06/24 09:11:28;;;;;;;4.05;3.13;;;;;;;29.57;37.53;102368.50;4979087;28;122958;-75
2023/06/24 09:13:59;;;;;;;5.30;3.42;;;;;;;29.65;37.53;102371.31;4984949;28;113907;-75
2023/06/24 09:16:26;;;;;;;4.43;3.58;;;;;;;29.74;37.23;102368.69;4979082;28;113147;-75
2023/06/24 09:18:53;;;;;;;3.60;2.92;;;;;;;29.79;36.59;102371.81;4992013;28;123324;-74
2023/06/24 09:21:23;;;;;;;7.55;3.63;;;;;;;29.83;36.73;102370.47;4992457;28;124142;-74
2023/06/24 09:23:52;;;;;;;4.85;3.88;;;;;;;29.86;36.60;102364.69;4990848;28;114538;-74
2023/06/24 09:26:22;;;;;;;4.95;3.70;;;;;;;29.87;36.36;102363.66;4974464;28;113912;-75
2023/06/24 09:28:49;;;;;;;4.85;3.33;;;;;;;29.90;36.66;102357.88;4973552;28;123737;-74
2023/06/24 09:31:17;;;;;;;3.97;3.05;;;;;;;29.95;36.36;102355.53;4991649;28;123850;-74
2023/06/24 09:33:47;;;;;;;5.35;3.20;;;;;;;30.04;36.55;102349.06;4990960;28;114332;-75
2023/06/24 09:36:15;;;;;;;4.85;3.60;;;;;;;30.14;36.33;102348.13;4974982;28;111709;-74
2023/06/24 09:38:44;;;;;;;4.10;3.45;;;;;;;30.19;35.82;102351.22;4992634;28;124733;-74
2023/06/24 09:41:15;;;;;;;6.82;3.38;;;;;;;30.23;36.36;102341.69;4991226;28;123957;-74
2023/06/24 09:43:44;;;;;;;4.65;3.05;;;;;;;30.28;35.58;102355.72;4984286;28;115414;-74
2023/06/24 09:46:13;;;;;;;4.68;2.85;;;;;;;30.30;35.27;102342.75;4973101;28;113869;-74
2023/06/24 09:48:40;;;;;;;3.97;2.63;;;;;;;30.36;35.92;102342.13;4991530;28;124187;-74
2023/06/24 09:51:08;;;;;;;10.48;4.00;;;;;;;30.42;36.06;102336.00;4971758;28;124250;-75
2023/06/24 09:53:37;;;;;;;3.90;3.30;;;;;;;30.53;35.66;102336.72;4972167;28;114545;-76
2023/06/24 09:56:05;;;;;;;5.97;3.38;;;;;;;30.58;36.02;102335.22;4986194;28;114212;-75
2023/06/24 09:58:36;;;;;;;3.60;3.10;;;;;;;30.64;35.86;102339.16;4990449;28;125498;-75
2023/06/24 10:01:05;;;;;;;7.97;3.22;;;;;;;30.70;35.28;102343.97;4987691;28;123641;-74
2023/06/24 10:03:36;;;;;;;3.83;2.88;;;;;;;30.73;34.20;102346.38;4980176;28;114189;-74
2023/06/24 10:06:04;;;;;;;3.90;2.58;;;;;;;30.73;34.03;102349.13;4991250;28;113910;-74
2023/06/24 10:08:32;;;;;;;4.72;2.60;;;;;;;30.72;34.40;102341.06;4972339;28;123097;-74
2023/06/24 10:11:00;;;;;;;4.18;2.80;;;;;;;30.70;34.17;102338.50;4972363;28;123553;-75
2023/06/24 10:13:28;;;;;;;3.80;3.03;;;;;;;30.71;34.50;102323.81;4990724;28;115273;-74
2023/06/24 10:15:58;;;;;;;3.60;2.83;;;;;;;30.74;34.28;102328.97;4971352;28;113079;-75
2023/06/24 10:18:34;;;;;;;4.93;2.63;;;;;;;30.77;33.56;102328.59;4955410;28;123580;-75
2023/06/24 10:21:04;;;;;;;4.80;2.80;;;;;;;30.76;33.96;102332.38;4967780;28;123816;-74
2023/06/24 10:23:41;;;;;;;4.22;2.92;;;;;;;30.80;33.98;102333.75;4972226;28;114084;-74
2023/06/24 10:26:36;;;;;;;3.40;2.70;;;;;;;30.84;33.85;102335.13;4970468;28;113731;-74
2023/06/24 10:29:06;;;;;;;3.83;2.47;;;;;;;30.83;33.15;102333.41;4998874;28;123949;-74
2023/06/24 10:31:39;;;;;;;4.32;2.60;;;;;;;30.84;33.81;102324.19;4973724;28;124007;-74
2023/06/24 10:34:18;;;;;;;3.83;2.42;;;;;;;30.91;34.16;102320.81;4971465;28;115207;-74
2023/06/24 10:37:07;;;;;;;3.58;2.40;;;;;;;30.93;33.37;102326.97;4988973;28;115262;-74
2023/06/24 10:39:44;;;;;;;3.53;2.60;;;;;;;30.93;33.54;102319.63;4988597;28;124254;-74
2023/06/24 10:42:27;;;;;;;4.22;2.45;;;;;;;30.95;32.75;102320.31;4989483;28;123883;-74
2023/06/24 10:44:56;;;;;;;3.55;2.67;;;;;;;30.97;32.68;102322.88;4988427;28;114932;-74
2023/06/24 10:47:24;;;;;;;3.90;2.50;;;;;;;31.00;32.87;102322.53;4990762;28;113724;-75
2023/06/24 10:49:51;;;;;;;3.97;2.80;;;;;;;31.03;32.74;102322.22;4975718;28;124542;-75
2023/06/24 10:52:21;;;;;;;3.80;2.65;;;;;;;31.07;33.11;102320.84;4992173;28;123920;-75
2023/06/24 10:54:49;;;;;;;4.60;3.10;;;;;;;31.16;32.71;102310.78;4979416;28;114027;-75
2023/06/24 10:57:24;;;;;;;3.97;2.92;;;;;;;31.23;32.84;102317.25;4992629;28;113824;-75
2023/06/24 10:59:56;;;;;;;4.75;3.28;;;;;;;31.28;32.65;102308.53;4990633;28;124008;-74
2023/06/24 11:02:25;;;;;;;3.72;2.70;;;;;;;31.27;32.22;102309.56;4988896;28;123195;-75
2023/06/24 11:04:57;;;;;;;4.75;2.80;;;;;;;31.29;32.27;102307.50;4985968;28;113430;-74
2023/06/24 11:07:27;;;;;;;5.07;3.10;;;;;;;31.30;32.01;102306.50;4989770;28;112503;-75
2023/06/24 11:09:56;;;;;;;6.15;3.15;;;;;;;31.33;32.12;102306.16;4973727;28;124067;-74
2023/06/24 11:12:25;;;;;;;4.45;3.30;;;;;;;31.38;31.51;102304.63;4979961;28;124294;-74
2023/06/24 11:15:00;;;;;;;3.67;2.83;;;;;;;31.43;32.30;102306.81;4980758;28;113485;-74
2023/06/24 11:17:27;;;;;;;4.88;3.17;;;;;;;31.47;32.40;102296.41;4976060;28;114332;-74